sensor_id;sensor_type;location;lat;lon;timestamp;P1;durP1;ratioP1;P2;durP2;ratioP2
61204;SDS011;47068;55.780;37.520;2022-12-18T00:00:04;405.30;;;106.60;;
61204;SDS011;47068;55.780;37.520;2022-12-18T00:02:31;399.60;;;108.13;;
61204;SDS011;47068;55.780;37.520;2022-12-18T00:04:56;408.73;;;110.32;;
61204;SDS011;47068;55.780;37.520;2022-12-18T00:07:22;405.77;;;110.33;;
61204;SDS011;47068;55.780;37.520;2022-12-18T00:09:47;400.73;;;108.27;;
61204;SDS011;47068;55.780;37.520;2022-12-18T00:12:13;405.37;;;105.60;;
61204;SDS011;47068;55.780;37.520;2022-12-18T00:14:38;402.97;;;106.03;;
61204;SDS011;47068;55.780;37.520;2022-12-18T00:17:03;401.75;;;107.97;;
61204;SDS011;47068;55.780;37.520;2022-12-18T00:19:29;408.53;;;107.77;;
61204;SDS011;47068;55.780;37.520;2022-12-18T00:21:54;404.25;;;108.38;;
61204;SDS011;47068;55.780;37.520;2022-12-18T00:24:20;413.67;;;108.75;;
61204;SDS011;47068;55.780;37.520;2022-12-18T00:26:45;408.08;;;107.32;;
61204;SDS011;47068;55.780;37.520;2022-12-18T00:29:11;412.03;;;107.57;;
61204;SDS011;47068;55.780;37.520;2022-12-18T00:31:42;400.63;;;108.53;;
61204;SDS011;47068;55.780;37.520;2022-12-18T00:34:09;404.20;;;109.60;;
61204;SDS011;47068;55.780;37.520;2022-12-18T00:36:36;408.87;;;107.13;;
61204;SDS011;47068;55.780;37.520;2022-12-18T00:39:04;406.20;;;108.60;;
61204;SDS011;47068;55.780;37.520;2022-12-18T00:41:30;409.43;;;109.53;;
61204;SDS011;47068;55.780;37.520;2022-12-18T00:44:14;409.60;;;108.73;;
61204;SDS011;47068;55.780;37.520;2022-12-18T00:46:42;407.93;;;109.20;;
61204;SDS011;47068;55.780;37.520;2022-12-18T00:49:09;411.17;;;109.87;;
61204;SDS011;47068;55.780;37.520;2022-12-18T00:51:38;410.70;;;108.50;;
61204;SDS011;47068;55.780;37.520;2022-12-18T00:54:05;414.58;;;110.55;;
61204;SDS011;47068;55.780;37.520;2022-12-18T00:56:31;413.77;;;110.07;;
61204;SDS011;47068;55.780;37.520;2022-12-18T00:58:56;409.15;;;108.95;;
61204;SDS011;47068;55.780;37.520;2022-12-18T01:01:21;412.02;;;109.40;;
61204;SDS011;47068;55.780;37.520;2022-12-18T01:03:47;383.35;;;101.68;;
61204;SDS011;47068;55.780;37.520;2022-12-18T01:06:13;368.88;;;102.20;;
61204;SDS011;47068;55.780;37.520;2022-12-18T01:08:40;385.90;;;103.83;;
61204;SDS011;47068;55.780;37.520;2022-12-18T01:11:10;383.27;;;106.38;;
61204;SDS011;47068;55.780;37.520;2022-12-18T01:13:37;385.70;;;105.67;;
61204;SDS011;47068;55.780;37.520;2022-12-18T01:16:03;383.38;;;105.20;;
61204;SDS011;47068;55.780;37.520;2022-12-18T01:18:29;432.70;;;117.93;;
61204;SDS011;47068;55.780;37.520;2022-12-18T01:20:55;409.40;;;107.10;;
61204;SDS011;47068;55.780;37.520;2022-12-18T01:23:20;388.33;;;107.18;;
61204;SDS011;47068;55.780;37.520;2022-12-18T01:25:46;375.98;;;104.35;;
61204;SDS011;47068;55.780;37.520;2022-12-18T01:28:11;376.10;;;102.30;;
61204;SDS011;47068;55.780;37.520;2022-12-18T01:30:37;381.27;;;105.57;;
61204;SDS011;47068;55.780;37.520;2022-12-18T01:33:04;381.25;;;104.80;;
61204;SDS011;47068;55.780;37.520;2022-12-18T01:35:30;364.90;;;102.73;;
61204;SDS011;47068;55.780;37.520;2022-12-18T01:37:56;323.38;;;98.50;;
61204;SDS011;47068;55.780;37.520;2022-12-18T01:40:22;301.50;;;97.28;;
61204;SDS011;47068;55.780;37.520;2022-12-18T01:42:54;299.77;;;96.00;;
61204;SDS011;47068;55.780;37.520;2022-12-18T01:47:53;252.90;;;91.23;;
61204;SDS011;47068;55.780;37.520;2022-12-18T01:50:30;276.40;;;95.57;;
61204;SDS011;47068;55.780;37.520;2022-12-18T01:55:29;343.47;;;103.50;;
61204;SDS011;47068;55.780;37.520;2022-12-18T01:57:57;350.97;;;104.07;;
61204;SDS011;47068;55.780;37.520;2022-12-18T02:00:24;372.00;;;105.73;;
61204;SDS011;47068;55.780;37.520;2022-12-18T02:02:51;344.30;;;105.10;;
61204;SDS011;47068;55.780;37.520;2022-12-18T02:05:37;258.40;;;94.20;;
61204;SDS011;47068;55.780;37.520;2022-12-18T02:08:24;266.30;;;94.30;;
61204;SDS011;47068;55.780;37.520;2022-12-18T02:11:17;271.80;;;97.37;;
61204;SDS011;47068;55.780;37.520;2022-12-18T02:16:52;300.53;;;99.73;;
61204;SDS011;47068;55.780;37.520;2022-12-18T02:22:09;232.80;;;90.50;;
61204;SDS011;47068;55.780;37.520;2022-12-18T02:25:12;237.93;;;91.40;;
61204;SDS011;47068;55.780;37.520;2022-12-18T02:30:05;224.03;;;85.83;;
61204;SDS011;47068;55.780;37.520;2022-12-18T02:32:37;230.20;;;89.63;;
61204;SDS011;47068;55.780;37.520;2022-12-18T02:35:09;240.07;;;90.50;;
61204;SDS011;47068;55.780;37.520;2022-12-18T02:37:38;242.33;;;90.43;;
61204;SDS011;47068;55.780;37.520;2022-12-18T02:40:05;256.30;;;93.30;;
61204;SDS011;47068;55.780;37.520;2022-12-18T02:42:33;254.43;;;93.87;;
61204;SDS011;47068;55.780;37.520;2022-12-18T02:44:58;214.50;;;87.70;;
61204;SDS011;47068;55.780;37.520;2022-12-18T02:47:24;228.52;;;88.80;;
61204;SDS011;47068;55.780;37.520;2022-12-18T02:49:57;248.80;;;91.87;;
61204;SDS011;47068;55.780;37.520;2022-12-18T03:01:24;246.40;;;91.60;;
61204;SDS011;47068;55.780;37.520;2022-12-18T03:04:00;252.80;;;90.47;;
61204;SDS011;47068;55.780;37.520;2022-12-18T03:06:37;249.43;;;90.20;;
61204;SDS011;47068;55.780;37.520;2022-12-18T03:09:11;266.33;;;92.00;;
61204;SDS011;47068;55.780;37.520;2022-12-18T03:11:41;269.03;;;94.40;;
61204;SDS011;47068;55.780;37.520;2022-12-18T03:14:32;267.47;;;93.07;;
61204;SDS011;47068;55.780;37.520;2022-12-18T03:17:01;266.93;;;93.57;;
61204;SDS011;47068;55.780;37.520;2022-12-18T03:19:31;278.87;;;94.33;;
61204;SDS011;47068;55.780;37.520;2022-12-18T03:21:58;282.57;;;94.10;;
61204;SDS011;47068;55.780;37.520;2022-12-18T03:24:27;289.53;;;95.97;;
61204;SDS011;47068;55.780;37.520;2022-12-18T03:26:57;280.73;;;95.37;;
61204;SDS011;47068;55.780;37.520;2022-12-18T03:29:32;276.27;;;93.27;;
61204;SDS011;47068;55.780;37.520;2022-12-18T03:32:16;283.13;;;93.00;;
61204;SDS011;47068;55.780;37.520;2022-12-18T03:34:50;281.20;;;92.63;;
61204;SDS011;47068;55.780;37.520;2022-12-18T03:37:18;256.07;;;89.77;;
61204;SDS011;47068;55.780;37.520;2022-12-18T03:39:44;265.35;;;91.78;;
61204;SDS011;47068;55.780;37.520;2022-12-18T03:42:26;280.15;;;92.32;;
61204;SDS011;47068;55.780;37.520;2022-12-18T03:55:34;285.17;;;93.00;;
61204;SDS011;47068;55.780;37.520;2022-12-18T03:58:01;260.43;;;90.30;;
61204;SDS011;47068;55.780;37.520;2022-12-18T04:00:28;264.17;;;90.20;;
61204;SDS011;47068;55.780;37.520;2022-12-18T04:02:56;252.53;;;88.43;;
61204;SDS011;47068;55.780;37.520;2022-12-18T04:05:24;273.50;;;90.67;;
61204;SDS011;47068;55.780;37.520;2022-12-18T04:07:51;312.27;;;97.67;;
61204;SDS011;47068;55.780;37.520;2022-12-18T04:10:18;274.20;;;91.77;;
61204;SDS011;47068;55.780;37.520;2022-12-18T04:12:43;288.25;;;93.82;;
61204;SDS011;47068;55.780;37.520;2022-12-18T04:15:09;305.17;;;93.95;;
61204;SDS011;47068;55.780;37.520;2022-12-18T04:17:36;346.50;;;100.13;;
61204;SDS011;47068;55.780;37.520;2022-12-18T04:20:03;370.40;;;100.90;;
61204;SDS011;47068;55.780;37.520;2022-12-18T04:22:29;353.83;;;100.10;;
61204;SDS011;47068;55.780;37.520;2022-12-18T04:24:54;385.95;;;105.90;;
61204;SDS011;47068;55.780;37.520;2022-12-18T04:27:20;396.87;;;105.53;;
61204;SDS011;47068;55.780;37.520;2022-12-18T04:29:45;394.20;;;105.45;;
61204;SDS011;47068;55.780;37.520;2022-12-18T04:32:11;391.88;;;107.57;;
61204;SDS011;47068;55.780;37.520;2022-12-18T04:34:36;362.80;;;101.83;;
61204;SDS011;47068;55.780;37.520;2022-12-18T04:37:02;400.27;;;105.53;;
61204;SDS011;47068;55.780;37.520;2022-12-18T04:39:27;406.30;;;108.97;;
61204;SDS011;47068;55.780;37.520;2022-12-18T04:41:53;413.05;;;107.00;;
61204;SDS011;47068;55.780;37.520;2022-12-18T04:44:18;420.02;;;111.72;;
61204;SDS011;47068;55.780;37.520;2022-12-18T04:46:44;408.30;;;107.88;;
61204;SDS011;47068;55.780;37.520;2022-12-18T04:49:09;414.05;;;109.53;;
61204;SDS011;47068;55.780;37.520;2022-12-18T04:51:38;442.63;;;113.97;;
61204;SDS011;47068;55.780;37.520;2022-12-18T04:54:03;435.45;;;114.88;;
61204;SDS011;47068;55.780;37.520;2022-12-18T04:56:30;455.60;;;115.10;;
61204;SDS011;47068;55.780;37.520;2022-12-18T04:58:56;427.20;;;108.33;;
61204;SDS011;47068;55.780;37.520;2022-12-18T05:01:22;282.38;;;90.15;;
61204;SDS011;47068;55.780;37.520;2022-12-18T05:03:48;260.30;;;87.70;;
61204;SDS011;47068;55.780;37.520;2022-12-18T05:06:13;250.38;;;86.72;;
61204;SDS011;47068;55.780;37.520;2022-12-18T05:08:39;249.68;;;86.53;;
61204;SDS011;47068;55.780;37.520;2022-12-18T05:11:06;247.67;;;85.80;;
61204;SDS011;47068;55.780;37.520;2022-12-18T05:13:34;249.40;;;87.57;;
61204;SDS011;47068;55.780;37.520;2022-12-18T05:16:00;246.47;;;86.57;;
61204;SDS011;47068;55.780;37.520;2022-12-18T05:18:26;237.87;;;86.13;;
61204;SDS011;47068;55.780;37.520;2022-12-18T05:20:52;239.77;;;85.97;;
61204;SDS011;47068;55.780;37.520;2022-12-18T05:23:19;244.20;;;87.10;;
61204;SDS011;47068;55.780;37.520;2022-12-18T05:25:54;249.27;;;88.30;;
61204;SDS011;47068;55.780;37.520;2022-12-18T05:28:22;263.77;;;88.93;;
61204;SDS011;47068;55.780;37.520;2022-12-18T05:30:52;267.77;;;88.67;;
61204;SDS011;47068;55.780;37.520;2022-12-18T05:33:19;270.40;;;89.80;;
61204;SDS011;47068;55.780;37.520;2022-12-18T05:35:55;267.77;;;88.43;;
61204;SDS011;47068;55.780;37.520;2022-12-18T05:38:23;278.45;;;89.75;;
61204;SDS011;47068;55.780;37.520;2022-12-18T05:40:50;276.47;;;91.07;;
61204;SDS011;47068;55.780;37.520;2022-12-18T05:43:17;269.40;;;90.13;;
61204;SDS011;47068;55.780;37.520;2022-12-18T05:48:08;275.27;;;87.37;;
61204;SDS011;47068;55.780;37.520;2022-12-18T05:50:35;290.75;;;89.75;;
61204;SDS011;47068;55.780;37.520;2022-12-18T05:53:02;281.23;;;90.67;;
61204;SDS011;47068;55.780;37.520;2022-12-18T05:55:28;298.70;;;99.17;;
61204;SDS011;47068;55.780;37.520;2022-12-18T05:57:54;297.60;;;91.53;;
61204;SDS011;47068;55.780;37.520;2022-12-18T06:00:19;312.95;;;101.70;;
61204;SDS011;47068;55.780;37.520;2022-12-18T06:02:48;305.95;;;93.63;;
61204;SDS011;47068;55.780;37.520;2022-12-18T06:05:13;299.90;;;93.40;;
61204;SDS011;47068;55.780;37.520;2022-12-18T06:07:39;314.48;;;96.38;;
61204;SDS011;47068;55.780;37.520;2022-12-18T06:10:05;315.75;;;92.80;;
61204;SDS011;47068;55.780;37.520;2022-12-18T06:12:31;329.85;;;96.57;;
61204;SDS011;47068;55.780;37.520;2022-12-18T06:14:58;306.10;;;95.23;;
61204;SDS011;47068;55.780;37.520;2022-12-18T06:17:27;329.92;;;96.00;;
61204;SDS011;47068;55.780;37.520;2022-12-18T06:19:57;350.67;;;99.50;;
61204;SDS011;47068;55.780;37.520;2022-12-18T06:22:22;339.95;;;99.03;;
61204;SDS011;47068;55.780;37.520;2022-12-18T06:24:48;427.67;;;109.57;;
61204;SDS011;47068;55.780;37.520;2022-12-18T06:27:14;333.23;;;97.03;;
61204;SDS011;47068;55.780;37.520;2022-12-18T06:29:39;362.00;;;101.03;;
61204;SDS011;47068;55.780;37.520;2022-12-18T06:32:05;391.15;;;107.45;;
61204;SDS011;47068;55.780;37.520;2022-12-18T06:34:31;384.88;;;102.60;;
61204;SDS011;47068;55.780;37.520;2022-12-18T06:36:57;396.55;;;106.68;;
61204;SDS011;47068;55.780;37.520;2022-12-18T06:39:22;397.73;;;105.28;;
61204;SDS011;47068;55.780;37.520;2022-12-18T06:41:48;394.67;;;105.20;;
61204;SDS011;47068;55.780;37.520;2022-12-18T06:44:13;383.33;;;104.03;;
61204;SDS011;47068;55.780;37.520;2022-12-18T06:46:39;387.15;;;105.15;;
61204;SDS011;47068;55.780;37.520;2022-12-18T06:49:04;393.63;;;102.10;;
61204;SDS011;47068;55.780;37.520;2022-12-18T06:51:30;388.08;;;105.50;;
61204;SDS011;47068;55.780;37.520;2022-12-18T06:53:55;386.73;;;103.68;;
61204;SDS011;47068;55.780;37.520;2022-12-18T06:56:21;384.95;;;103.63;;
61204;SDS011;47068;55.780;37.520;2022-12-18T06:58:50;389.85;;;103.97;;
61204;SDS011;47068;55.780;37.520;2022-12-18T07:01:15;375.50;;;104.10;;
61204;SDS011;47068;55.780;37.520;2022-12-18T07:03:41;374.05;;;103.90;;
61204;SDS011;47068;55.780;37.520;2022-12-18T07:06:12;366.08;;;102.88;;
61204;SDS011;47068;55.780;37.520;2022-12-18T07:08:39;368.00;;;105.23;;
61204;SDS011;47068;55.780;37.520;2022-12-18T07:11:05;365.35;;;100.75;;
61204;SDS011;47068;55.780;37.520;2022-12-18T07:13:31;364.30;;;99.95;;
61204;SDS011;47068;55.780;37.520;2022-12-18T07:16:02;357.75;;;102.97;;
61204;SDS011;47068;55.780;37.520;2022-12-18T07:18:31;353.33;;;99.87;;
61204;SDS011;47068;55.780;37.520;2022-12-18T07:20:56;345.27;;;97.55;;
61204;SDS011;47068;55.780;37.520;2022-12-18T07:23:22;357.90;;;98.60;;
61204;SDS011;47068;55.780;37.520;2022-12-18T07:25:47;309.88;;;93.53;;
61204;SDS011;47068;55.780;37.520;2022-12-18T07:28:13;337.60;;;99.23;;
61204;SDS011;47068;55.780;37.520;2022-12-18T07:33:05;305.60;;;91.40;;
61204;SDS011;47068;55.780;37.520;2022-12-18T07:35:30;342.88;;;98.28;;
61204;SDS011;47068;55.780;37.520;2022-12-18T07:37:56;337.47;;;95.90;;
61204;SDS011;47068;55.780;37.520;2022-12-18T07:40:21;332.73;;;98.97;;
61204;SDS011;47068;55.780;37.520;2022-12-18T07:42:47;333.05;;;95.55;;
61204;SDS011;47068;55.780;37.520;2022-12-18T07:45:12;335.45;;;95.25;;
61204;SDS011;47068;55.780;37.520;2022-12-18T07:47:38;340.02;;;97.60;;
61204;SDS011;47068;55.780;37.520;2022-12-18T07:50:03;340.92;;;98.00;;
61204;SDS011;47068;55.780;37.520;2022-12-18T07:52:30;310.93;;;96.30;;
61204;SDS011;47068;55.780;37.520;2022-12-18T07:54:55;298.15;;;95.55;;
61204;SDS011;47068;55.780;37.520;2022-12-18T07:57:21;305.33;;;95.70;;
61204;SDS011;47068;55.780;37.520;2022-12-18T07:59:46;334.65;;;99.50;;
61204;SDS011;47068;55.780;37.520;2022-12-18T08:02:12;323.95;;;96.65;;
61204;SDS011;47068;55.780;37.520;2022-12-18T08:04:37;313.73;;;94.33;;
61204;SDS011;47068;55.780;37.520;2022-12-18T08:07:03;320.10;;;96.70;;
61204;SDS011;47068;55.780;37.520;2022-12-18T08:09:28;322.02;;;94.45;;
61204;SDS011;47068;55.780;37.520;2022-12-18T08:11:54;315.27;;;93.07;;
61204;SDS011;47068;55.780;37.520;2022-12-18T08:14:19;320.40;;;96.93;;
61204;SDS011;47068;55.780;37.520;2022-12-18T08:16:45;331.27;;;97.38;;
61204;SDS011;47068;55.780;37.520;2022-12-18T08:19:10;332.15;;;98.57;;
61204;SDS011;47068;55.780;37.520;2022-12-18T08:21:36;337.10;;;97.47;;
61204;SDS011;47068;55.780;37.520;2022-12-18T08:24:02;325.58;;;98.68;;
61204;SDS011;47068;55.780;37.520;2022-12-18T08:26:29;325.67;;;96.30;;
61204;SDS011;47068;55.780;37.520;2022-12-18T08:28:56;326.93;;;98.23;;
61204;SDS011;47068;55.780;37.520;2022-12-18T08:31:23;320.67;;;96.40;;
61204;SDS011;47068;55.780;37.520;2022-12-18T08:36:15;324.60;;;97.13;;
61204;SDS011;47068;55.780;37.520;2022-12-18T08:38:42;328.00;;;98.40;;
61204;SDS011;47068;55.780;37.520;2022-12-18T08:41:09;333.48;;;99.63;;
61204;SDS011;47068;55.780;37.520;2022-12-18T08:43:36;334.43;;;100.40;;
61204;SDS011;47068;55.780;37.520;2022-12-18T08:46:21;329.03;;;97.23;;
61204;SDS011;47068;55.780;37.520;2022-12-18T08:48:50;332.60;;;99.40;;
61204;SDS011;47068;55.780;37.520;2022-12-18T08:51:16;331.10;;;98.80;;
61204;SDS011;47068;55.780;37.520;2022-12-18T08:53:44;338.73;;;100.80;;
61204;SDS011;47068;55.780;37.520;2022-12-18T08:56:10;340.75;;;99.88;;
61204;SDS011;47068;55.780;37.520;2022-12-18T08:58:36;338.25;;;100.88;;
61204;SDS011;47068;55.780;37.520;2022-12-18T09:01:02;333.50;;;101.23;;
61204;SDS011;47068;55.780;37.520;2022-12-18T09:03:30;341.27;;;100.47;;
61204;SDS011;47068;55.780;37.520;2022-12-18T09:05:55;342.50;;;101.18;;
61204;SDS011;47068;55.780;37.520;2022-12-18T09:08:21;337.40;;;101.37;;
61204;SDS011;47068;55.780;37.520;2022-12-18T09:10:47;338.02;;;102.45;;
61204;SDS011;47068;55.780;37.520;2022-12-18T09:13:15;333.87;;;101.47;;
61204;SDS011;47068;55.780;37.520;2022-12-18T09:15:45;339.10;;;103.23;;
61204;SDS011;47068;55.780;37.520;2022-12-18T09:18:13;339.07;;;100.80;;
61204;SDS011;47068;55.780;37.520;2022-12-18T09:20:40;329.83;;;100.70;;
61204;SDS011;47068;55.780;37.520;2022-12-18T09:23:06;324.45;;;99.00;;
61204;SDS011;47068;55.780;37.520;2022-12-18T09:25:33;323.53;;;100.53;;
61204;SDS011;47068;55.780;37.520;2022-12-18T09:28:01;326.77;;;100.80;;
61204;SDS011;47068;55.780;37.520;2022-12-18T09:30:45;61.70;;;56.00;;
61204;SDS011;47068;55.780;37.520;2022-12-18T09:33:12;72.17;;;64.73;;
61204;SDS011;47068;55.780;37.520;2022-12-18T09:35:39;74.18;;;59.65;;
61204;SDS011;47068;55.780;37.520;2022-12-18T09:38:06;420.30;;;135.17;;
61204;SDS011;47068;55.780;37.520;2022-12-18T09:40:40;75.97;;;64.73;;
61204;SDS011;47068;55.780;37.520;2022-12-18T09:43:11;75.67;;;68.23;;
61204;SDS011;47068;55.780;37.520;2022-12-18T09:45:42;70.70;;;63.27;;
61204;SDS011;47068;55.780;37.520;2022-12-18T09:48:19;74.43;;;64.93;;
61204;SDS011;47068;55.780;37.520;2022-12-18T09:50:48;71.73;;;63.70;;
61204;SDS011;47068;55.780;37.520;2022-12-18T09:53:21;82.47;;;72.50;;
61204;SDS011;47068;55.780;37.520;2022-12-18T09:55:51;76.07;;;64.97;;
61204;SDS011;47068;55.780;37.520;2022-12-18T10:00:57;80.47;;;71.37;;
61204;SDS011;47068;55.780;37.520;2022-12-18T10:03:22;75.80;;;65.00;;
61204;SDS011;47068;55.780;37.520;2022-12-18T10:05:52;73.95;;;64.57;;
61204;SDS011;47068;55.780;37.520;2022-12-18T10:11:22;71.07;;;63.53;;
61204;SDS011;47068;55.780;37.520;2022-12-18T10:14:05;72.25;;;62.22;;
61204;SDS011;47068;55.780;37.520;2022-12-18T10:28:15;76.97;;;67.93;;
61204;SDS011;47068;55.780;37.520;2022-12-18T10:30:43;70.17;;;63.10;;
61204;SDS011;47068;55.780;37.520;2022-12-18T10:33:19;78.10;;;69.22;;
61204;SDS011;47068;55.780;37.520;2022-12-18T10:35:48;74.20;;;66.57;;
61204;SDS011;47068;55.780;37.520;2022-12-18T10:40:50;73.55;;;65.32;;
61204;SDS011;47068;55.780;37.520;2022-12-18T10:43:29;84.90;;;74.90;;
61204;SDS011;47068;55.780;37.520;2022-12-18T10:46:11;85.07;;;72.43;;
61204;SDS011;47068;55.780;37.520;2022-12-18T10:48:55;82.33;;;71.37;;
61204;SDS011;47068;55.780;37.520;2022-12-18T10:54:03;79.17;;;67.17;;
61204;SDS011;47068;55.780;37.520;2022-12-18T10:56:33;81.80;;;72.57;;
61204;SDS011;47068;55.780;37.520;2022-12-18T10:59:01;86.13;;;74.40;;
61204;SDS011;47068;55.780;37.520;2022-12-18T11:01:31;87.33;;;72.50;;
61204;SDS011;47068;55.780;37.520;2022-12-18T11:04:13;79.33;;;70.90;;
61204;SDS011;47068;55.780;37.520;2022-12-18T11:06:55;75.00;;;67.43;;
61204;SDS011;47068;55.780;37.520;2022-12-18T11:09:24;67.90;;;61.13;;
61204;SDS011;47068;55.780;37.520;2022-12-18T11:11:55;72.77;;;66.00;;
61204;SDS011;47068;55.780;37.520;2022-12-18T11:14:23;75.17;;;65.77;;
61204;SDS011;47068;55.780;37.520;2022-12-18T11:16:51;78.63;;;67.53;;
61204;SDS011;47068;55.780;37.520;2022-12-18T11:19:32;72.57;;;64.43;;
61204;SDS011;47068;55.780;37.520;2022-12-18T11:21:59;70.90;;;63.43;;
61204;SDS011;47068;55.780;37.520;2022-12-18T11:24:31;72.37;;;64.70;;
61204;SDS011;47068;55.780;37.520;2022-12-18T11:27:03;77.60;;;69.93;;
61204;SDS011;47068;55.780;37.520;2022-12-18T11:32:43;77.20;;;69.63;;
61204;SDS011;47068;55.780;37.520;2022-12-18T11:37:53;80.13;;;71.28;;
61204;SDS011;47068;55.780;37.520;2022-12-18T11:40:29;72.97;;;65.10;;
61204;SDS011;47068;55.780;37.520;2022-12-18T11:43:20;79.23;;;65.37;;
61204;SDS011;47068;55.780;37.520;2022-12-18T11:48:40;85.20;;;67.70;;
61204;SDS011;47068;55.780;37.520;2022-12-18T11:51:12;88.90;;;71.93;;
61204;SDS011;47068;55.780;37.520;2022-12-18T11:53:44;85.63;;;67.87;;
61204;SDS011;47068;55.780;37.520;2022-12-18T11:56:27;90.70;;;68.85;;
61204;SDS011;47068;55.780;37.520;2022-12-18T12:22:02;100.97;;;68.68;;
61204;SDS011;47068;55.780;37.520;2022-12-18T12:42:55;120.87;;;70.07;;
61204;SDS011;47068;55.780;37.520;2022-12-18T12:45:41;124.60;;;73.33;;
61204;SDS011;47068;55.780;37.520;2022-12-18T12:48:11;118.27;;;70.77;;
61204;SDS011;47068;55.780;37.520;2022-12-18T12:50:53;125.77;;;72.37;;
61204;SDS011;47068;55.780;37.520;2022-12-18T12:53:25;119.47;;;76.33;;
61204;SDS011;47068;55.780;37.520;2022-12-18T12:55:55;118.50;;;76.17;;
61204;SDS011;47068;55.780;37.520;2022-12-18T13:06:29;107.27;;;68.90;;
61204;SDS011;47068;55.780;37.520;2022-12-18T13:09:02;112.43;;;73.07;;
61204;SDS011;47068;55.780;37.520;2022-12-18T13:14:26;121.03;;;75.63;;
61204;SDS011;47068;55.780;37.520;2022-12-18T13:19:52;126.27;;;72.87;;
61204;SDS011;47068;55.780;37.520;2022-12-18T13:38:20;137.57;;;74.73;;
61204;SDS011;47068;55.780;37.520;2022-12-18T13:51:48;160.03;;;81.73;;
61204;SDS011;47068;55.780;37.520;2022-12-18T13:54:21;152.40;;;79.47;;
61204;SDS011;47068;55.780;37.520;2022-12-18T13:56:48;161.03;;;81.33;;
61204;SDS011;47068;55.780;37.520;2022-12-18T13:59:16;159.32;;;80.65;;
61204;SDS011;47068;55.780;37.520;2022-12-18T14:01:54;147.80;;;77.50;;
61204;SDS011;47068;55.780;37.520;2022-12-18T14:07:04;165.77;;;81.60;;
61204;SDS011;47068;55.780;37.520;2022-12-18T14:09:42;157.80;;;80.10;;
61204;SDS011;47068;55.780;37.520;2022-12-18T14:12:35;162.97;;;82.70;;
61204;SDS011;47068;55.780;37.520;2022-12-18T14:20:22;154.83;;;77.50;;
61204;SDS011;47068;55.780;37.520;2022-12-18T14:22:50;150.63;;;78.27;;
61204;SDS011;47068;55.780;37.520;2022-12-18T14:25:17;160.52;;;81.55;;
61204;SDS011;47068;55.780;37.520;2022-12-18T14:27:47;156.90;;;78.43;;
61204;SDS011;47068;55.780;37.520;2022-12-18T14:30:36;164.13;;;79.03;;
61204;SDS011;47068;55.780;37.520;2022-12-18T14:35:37;158.17;;;78.27;;
61204;SDS011;47068;55.780;37.520;2022-12-18T14:38:24;161.00;;;76.67;;
61204;SDS011;47068;55.780;37.520;2022-12-18T14:41:06;169.17;;;78.60;;
61204;SDS011;47068;55.780;37.520;2022-12-18T14:43:37;163.73;;;79.87;;
61204;SDS011;47068;55.780;37.520;2022-12-18T14:46:26;157.53;;;76.77;;
61204;SDS011;47068;55.780;37.520;2022-12-18T14:49:04;159.50;;;75.03;;
61204;SDS011;47068;55.780;37.520;2022-12-18T14:51:54;163.37;;;76.97;;
61204;SDS011;47068;55.780;37.520;2022-12-18T14:54:22;159.93;;;75.47;;
61204;SDS011;47068;55.780;37.520;2022-12-18T14:56:51;159.20;;;77.13;;
61204;SDS011;47068;55.780;37.520;2022-12-18T14:59:30;171.03;;;79.87;;
61204;SDS011;47068;55.780;37.520;2022-12-18T15:04:41;168.00;;;77.87;;
61204;SDS011;47068;55.780;37.520;2022-12-18T15:07:20;171.18;;;77.40;;
61204;SDS011;47068;55.780;37.520;2022-12-18T15:13:24;175.97;;;78.47;;
61204;SDS011;47068;55.780;37.520;2022-12-18T15:18:04;172.33;;;76.43;;
61204;SDS011;47068;55.780;37.520;2022-12-18T15:20:31;173.63;;;79.03;;
61204;SDS011;47068;55.780;37.520;2022-12-18T15:23:04;173.87;;;78.53;;
61204;SDS011;47068;55.780;37.520;2022-12-18T15:25:36;183.77;;;80.60;;
61204;SDS011;47068;55.780;37.520;2022-12-18T15:28:03;184.73;;;82.20;;
61204;SDS011;47068;55.780;37.520;2022-12-18T15:30:29;184.13;;;78.30;;
61204;SDS011;47068;55.780;37.520;2022-12-18T15:35:56;184.50;;;79.37;;
61204;SDS011;47068;55.780;37.520;2022-12-18T15:38:23;178.40;;;77.17;;
61204;SDS011;47068;55.780;37.520;2022-12-18T15:40:48;182.35;;;79.80;;
61204;SDS011;47068;55.780;37.520;2022-12-18T15:43:14;184.70;;;78.97;;
61204;SDS011;47068;55.780;37.520;2022-12-18T15:45:58;187.80;;;79.97;;
61204;SDS011;47068;55.780;37.520;2022-12-18T15:48:24;188.15;;;81.07;;
61204;SDS011;47068;55.780;37.520;2022-12-18T15:50:50;191.52;;;81.13;;
61204;SDS011;47068;55.780;37.520;2022-12-18T15:53:17;184.80;;;79.20;;
61204;SDS011;47068;55.780;37.520;2022-12-18T15:55:43;192.40;;;81.03;;
61204;SDS011;47068;55.780;37.520;2022-12-18T15:58:27;183.77;;;78.47;;
61204;SDS011;47068;55.780;37.520;2022-12-18T16:00:53;191.13;;;80.55;;
61204;SDS011;47068;55.780;37.520;2022-12-18T16:03:20;182.47;;;78.60;;
61204;SDS011;47068;55.780;37.520;2022-12-18T16:05:46;190.82;;;79.40;;
61204;SDS011;47068;55.780;37.520;2022-12-18T16:08:12;185.55;;;79.25;;
61204;SDS011;47068;55.780;37.520;2022-12-18T16:10:37;184.60;;;76.68;;
61204;SDS011;47068;55.780;37.520;2022-12-18T16:13:03;189.85;;;77.85;;
61204;SDS011;47068;55.780;37.520;2022-12-18T16:15:28;183.05;;;77.15;;
61204;SDS011;47068;55.780;37.520;2022-12-18T16:17:54;188.73;;;77.97;;
61204;SDS011;47068;55.780;37.520;2022-12-18T16:20:20;189.20;;;76.85;;
61204;SDS011;47068;55.780;37.520;2022-12-18T16:22:47;187.10;;;76.70;;
61204;SDS011;47068;55.780;37.520;2022-12-18T16:25:18;186.03;;;78.07;;
61204;SDS011;47068;55.780;37.520;2022-12-18T16:27:51;183.90;;;75.57;;
61204;SDS011;47068;55.780;37.520;2022-12-18T16:30:19;182.20;;;75.67;;
61204;SDS011;47068;55.780;37.520;2022-12-18T16:32:46;184.47;;;76.27;;
61204;SDS011;47068;55.780;37.520;2022-12-18T16:35:12;172.48;;;72.55;;
61204;SDS011;47068;55.780;37.520;2022-12-18T16:37:39;179.77;;;73.67;;
61204;SDS011;47068;55.780;37.520;2022-12-18T16:40:06;178.80;;;74.37;;
61204;SDS011;47068;55.780;37.520;2022-12-18T16:42:34;175.40;;;72.90;;
61204;SDS011;47068;55.780;37.520;2022-12-18T16:45:00;178.00;;;73.47;;
61204;SDS011;47068;55.780;37.520;2022-12-18T16:47:26;188.05;;;75.80;;
61204;SDS011;47068;55.780;37.520;2022-12-18T16:49:51;182.33;;;74.00;;
61204;SDS011;47068;55.780;37.520;2022-12-18T16:52:17;184.70;;;75.07;;
61204;SDS011;47068;55.780;37.520;2022-12-18T16:54:44;182.57;;;72.93;;
61204;SDS011;47068;55.780;37.520;2022-12-18T16:57:10;175.30;;;73.28;;
61204;SDS011;47068;55.780;37.520;2022-12-18T16:59:38;187.73;;;74.93;;